Time;durP1;ratioP1;P1;durP2;ratioP2;P2;SDS_P1;SDS_P2;PMS_P1;PMS_P2;Temp;Humidity;BMP_temperature;BMP_pressure;BME280_temperature;BME280_humidity;BME280_pressure;Samples;Min_cycle;Max_cycle;Signal;HPM_P1;HPM_P2
2021/06/06 00:01:06;;;;;;;64.22;40.50;;;17.40;99.90;;;;;;12389514;28;20053;-40
2021/06/06 00:07:09;;;;;;;62.22;38.10;;;17.30;99.90;;;;;;12389153;28;20100;-40
2021/06/06 00:13:13;;;;;;;68.95;42.40;;;17.30;99.90;;;;;;12389388;28;20050;-41
2021/06/06 00:19:17;;;;;;;79.85;45.42;;;17.20;99.90;;;;;;12392169;28;20445;-42
2021/06/06 00:25:20;;;;;;;75.38;45.78;;;17.10;99.90;;;;;;12388819;28;20062;-41
2021/06/06 00:31:23;;;;;;;75.60;44.47;;;17.10;99.90;;;;;;12385563;28;20139;-40
2021/06/06 00:37:25;;;;;;;72.43;45.17;;;17.10;99.90;;;;;;12380769;28;20052;-41
2021/06/06 00:43:28;;;;;;;79.72;44.28;;;17.10;99.90;;;;;;12388828;28;20046;-41
2021/06/06 00:49:30;;;;;;;69.10;41.33;;;17.10;99.90;;;;;;12386922;28;20046;-40
2021/06/06 00:55:33;;;;;;;74.43;45.33;;;17.10;99.90;;;;;;12379571;28;20108;-40
2021/06/06 01:01:35;;;;;;;66.85;40.85;;;17.10;99.90;;;;;;12385064;28;20050;-41
2021/06/06 01:07:38;;;;;;;69.40;41.75;;;17.00;99.90;;;;;;12378522;28;20498;-40
2021/06/06 01:13:45;;;;;;;58.65;37.10;;;17.10;99.90;;;;;;12386906;28;20119;-39
2021/06/06 01:20:10;;;;;;;56.72;38.17;;;16.90;99.90;;;;;;12380115;28;20046;-41
2021/06/06 01:26:21;;;;;;;63.42;39.05;;;16.80;99.90;;;;;;12443313;28;20452;-36
2021/06/06 01:32:29;;;;;;;57.97;37.38;;;16.70;99.90;;;;;;12412603;28;20502;-37
2021/06/06 01:39:00;;;;;;;52.95;35.40;;;16.80;99.90;;;;;;12388871;28;20120;-38
2021/06/06 01:45:13;;;;;;;53.85;37.30;;;16.70;99.90;;;;;;12386627;28;20037;-36
2021/06/06 01:51:26;;;;;;;57.05;37.85;;;16.70;99.90;;;;;;12382701;28;20046;-36
2021/06/06 01:57:29;;;;;;;51.13;33.90;;;16.70;99.90;;;;;;12384790;28;20056;-35
2021/06/06 02:03:31;;;;;;;51.00;34.13;;;16.60;99.90;;;;;;12381232;28;20046;-36
2021/06/06 02:09:37;;;;;;;50.83;35.25;;;16.60;99.90;;;;;;12382783;28;20046;-36
2021/06/06 02:15:39;;;;;;;48.13;33.83;;;16.60;99.90;;;;;;12385284;28;20050;-37
2021/06/06 02:21:42;;;;;;;46.60;33.63;;;16.50;99.90;;;;;;12385757;28;20499;-35
2021/06/06 02:27:59;;;;;;;47.22;33.47;;;16.40;99.90;;;;;;12383389;28;20058;-35
2021/06/06 02:34:30;;;;;;;45.10;33.55;;;16.40;99.90;;;;;;12387645;28;20109;-37
2021/06/06 02:40:45;;;;;;;53.15;35.00;;;16.40;99.90;;;;;;12403872;28;20137;-36
2021/06/06 02:46:49;;;;;;;50.45;33.08;;;16.30;99.90;;;;;;12384388;28;20042;-36
2021/06/06 02:53:06;;;;;;;48.67;33.20;;;16.40;99.90;;;;;;12389723;28;20046;-36
2021/06/06 02:59:15;;;;;;;56.60;38.00;;;16.30;99.90;;;;;;12389659;28;20485;-39
2021/06/06 03:05:21;;;;;;;51.72;34.63;;;16.00;99.90;;;;;;12390704;28;20054;-37
2021/06/06 03:11:26;;;;;;;58.05;38.13;;;16.10;99.90;;;;;;12385618;28;20411;-36
2021/06/06 03:17:32;;;;;;;61.15;37.63;;;16.10;99.90;;;;;;12382089;28;20453;-35
2021/06/06 03:23:35;;;;;;;67.03;41.03;;;16.00;99.90;;;;;;12389398;28;20045;-35
2021/06/06 03:29:56;;;;;;;67.57;42.10;;;16.00;99.90;;;;;;12383517;28;20440;-35
2021/06/06 03:35:58;;;;;;;73.55;42.28;;;15.90;99.90;;;;;;12381476;28;20050;-36
2021/06/06 03:42:01;;;;;;;76.28;42.63;;;15.90;99.90;;;;;;12383777;28;20042;-35
2021/06/06 03:48:03;;;;;;;77.82;44.45;;;15.90;99.90;;;;;;12382477;28;20050;-35
2021/06/06 03:54:10;;;;;;;69.40;43.72;;;15.70;99.90;;;;;;12381468;28;20078;-36
2021/06/06 04:00:20;;;;;;;73.40;45.00;;;15.70;99.90;;;;;;12381600;28;20057;-37
2021/06/06 04:06:23;;;;;;;94.15;50.15;;;15.60;99.90;;;;;;12380633;28;20205;-36
2021/06/06 04:12:25;;;;;;;69.47;45.35;;;15.60;99.90;;;;;;12379490;28;20644;-35
2021/06/06 04:18:30;;;;;;;74.57;46.28;;;15.70;99.90;;;;;;12380959;28;20149;-38
2021/06/06 04:24:32;;;;;;;70.18;44.60;;;15.70;99.90;;;;;;12383815;28;20156;-36
2021/06/06 04:30:34;;;;;;;61.83;39.35;;;15.70;99.90;;;;;;12384687;28;20167;-35
2021/06/06 04:36:37;;;;;;;62.42;40.42;;;15.60;99.90;;;;;;12382433;28;20046;-35
2021/06/06 04:42:39;;;;;;;61.85;38.47;;;15.50;99.90;;;;;;12382988;28;20050;-35
2021/06/06 04:48:43;;;;;;;54.35;37.17;;;15.50;99.90;;;;;;12380367;28;20672;-36
2021/06/06 04:54:45;;;;;;;47.88;33.92;;;15.50;99.90;;;;;;12376643;28;20585;-35
2021/06/06 05:00:48;;;;;;;48.85;33.15;;;15.50;99.90;;;;;;12379610;28;20079;-37
2021/06/06 05:06:50;;;;;;;43.08;31.80;;;15.50;99.90;;;;;;12379444;28;20247;-36
2021/06/06 05:12:52;;;;;;;41.85;29.33;;;15.40;99.90;;;;;;12384479;28;20053;-36
2021/06/06 05:18:55;;;;;;;34.97;26.48;;;15.50;99.90;;;;;;12379357;28;20200;-35
2021/06/06 05:24:57;;;;;;;33.43;25.73;;;15.50;99.90;;;;;;12380427;28;20471;-35
2021/06/06 05:31:00;;;;;;;31.67;23.48;;;15.60;99.90;;;;;;12377344;28;20166;-35
2021/06/06 05:37:02;;;;;;;25.67;20.75;;;15.70;99.90;;;;;;12376470;28;20099;-35
2021/06/06 05:43:04;;;;;;;20.48;15.90;;;15.70;99.90;;;;;;12378397;28;20054;-36
2021/06/06 05:49:06;;;;;;;22.23;17.58;;;15.80;99.90;;;;;;12375898;28;20050;-38
2021/06/06 05:55:08;;;;;;;21.52;17.45;;;16.10;99.90;;;;;;12375843;28;20058;-35
2021/06/06 06:01:10;;;;;;;20.13;15.75;;;15.90;99.90;;;;;;12377411;28;20037;-35
2021/06/06 06:07:12;;;;;;;20.70;14.80;;;16.10;99.90;;;;;;12385895;28;20050;-35
2021/06/06 06:13:15;;;;;;;15.38;12.25;;;16.30;99.90;;;;;;12393132;28;20046;-36
2021/06/06 06:19:17;;;;;;;20.55;14.55;;;16.10;99.90;;;;;;12387526;28;20058;-35
2021/06/06 06:25:20;;;;;;;14.93;11.95;;;15.90;99.90;;;;;;12386748;28;20058;-35
2021/06/06 06:31:22;;;;;;;18.15;14.30;;;16.00;99.90;;;;;;12386102;28;20104;-36
2021/06/06 06:37:25;;;;;;;21.80;17.70;;;16.00;99.90;;;;;;12383767;28;20073;-37
2021/06/06 06:43:27;;;;;;;24.25;18.20;;;16.00;99.90;;;;;;12382442;28;20062;-36
2021/06/06 06:49:29;;;;;;;30.30;21.67;;;16.00;99.90;;;;;;12391913;28;20050;-37
2021/06/06 06:55:32;;;;;;;34.53;21.63;;;16.10;99.90;;;;;;12384898;28;20076;-35
2021/06/06 07:01:33;;;;;;;28.27;20.00;;;16.10;99.90;;;;;;12385857;28;20049;-35
2021/06/06 07:07:35;;;;;;;30.25;22.38;;;15.90;99.90;;;;;;12388464;28;20541;-41
2021/06/06 07:13:38;;;;;;;30.52;22.75;;;16.00;99.90;;;;;;12377176;28;20461;-36
2021/06/06 07:19:41;;;;;;;31.27;22.50;;;16.00;99.90;;;;;;12373585;28;20509;-36
2021/06/06 07:25:44;;;;;;;31.13;22.65;;;16.00;99.90;;;;;;12386964;28;20046;-36
2021/06/06 07:31:48;;;;;;;31.33;21.88;;;16.00;99.90;;;;;;12380444;28;20058;-36
2021/06/06 07:37:51;;;;;;;33.75;21.83;;;16.00;99.90;;;;;;12386739;28;20046;-36
2021/06/06 07:43:56;;;;;;;29.33;21.52;;;15.90;99.90;;;;;;12382472;28;20152;-36
2021/06/06 07:49:59;;;;;;;32.63;22.02;;;16.00;99.90;;;;;;12386140;28;20667;-36
2021/06/06 07:56:00;;;;;;;31.83;22.10;;;16.00;99.90;;;;;;12431478;28;103434;-36
2021/06/06 08:02:03;;;;;;;28.55;21.63;;;15.80;99.90;;;;;;12425099;28;20057;-36
2021/06/06 08:08:06;;;;;;;26.10;20.92;;;16.00;99.90;;;;;;12386359;28;20046;-35
2021/06/06 08:14:08;;;;;;;26.77;20.33;;;16.20;99.90;;;;;;12379423;28;20076;-35
2021/06/06 08:20:15;;;;;;;23.52;18.48;;;16.20;99.90;;;;;;12384951;28;20330;-36
2021/06/06 08:26:19;;;;;;;23.70;17.38;;;16.20;99.90;;;;;;12390176;28;20125;-36
2021/06/06 08:32:21;;;;;;;25.67;19.35;;;16.10;99.90;;;;;;12384628;28;20061;-36
2021/06/06 08:38:27;;;;;;;24.80;19.48;;;16.20;99.90;;;;;;12390001;28;20560;-37
2021/06/06 08:44:33;;;;;;;26.67;18.77;;;16.30;99.90;;;;;;12384594;28;20042;-36
2021/06/06 08:50:43;;;;;;;26.13;19.25;;;16.30;99.90;;;;;;12387122;28;20052;-36
2021/06/06 08:56:51;;;;;;;23.70;17.33;;;16.10;99.90;;;;;;12387972;28;20066;-35
2021/06/06 09:03:00;;;;;;;23.75;18.30;;;16.10;99.90;;;;;;12390152;28;20658;-36
2021/06/06 09:09:05;;;;;;;27.15;19.52;;;16.10;99.90;;;;;;12387828;28;20052;-35
2021/06/06 09:15:12;;;;;;;26.90;17.90;;;16.10;99.90;;;;;;12381946;28;20054;-36
2021/06/06 09:21:18;;;;;;;24.45;18.67;;;16.10;99.90;;;;;;12381864;28;20555;-35
2021/06/06 09:27:24;;;;;;;30.50;21.00;;;16.10;99.90;;;;;;12386487;28;20058;-36
2021/06/06 09:33:34;;;;;;;26.00;19.83;;;16.00;99.90;;;;;;12382292;28;20129;-37
2021/06/06 09:39:51;;;;;;;30.08;22.23;;;16.00;99.90;;;;;;12386245;28;20084;-38
2021/06/06 09:46:08;;;;;;;32.80;22.25;;;16.00;99.90;;;;;;12380201;28;20534;-37
2021/06/06 09:52:21;;;;;;;32.38;23.00;;;16.10;99.90;;;;;;12384892;28;20560;-35
2021/06/06 09:58:23;;;;;;;34.80;24.05;;;15.90;99.90;;;;;;12373162;28;21771;-36
2021/06/06 10:04:29;;;;;;;33.45;24.27;;;15.90;99.90;;;;;;12378105;28;20054;-35
2021/06/06 10:10:40;;;;;;;38.65;28.23;;;16.20;99.90;;;;;;12383561;28;20049;-36
2021/06/06 10:16:45;;;;;;;44.45;29.52;;;16.10;99.90;;;;;;12388885;28;20058;-36
2021/06/06 10:23:05;;;;;;;48.30;30.48;;;16.00;99.90;;;;;;12384319;28;20149;-36
2021/06/06 10:29:42;;;;;;;50.30;32.67;;;16.00;99.90;;;;;;12386171;28;20097;-36
2021/06/06 10:35:45;;;;;;;50.58;33.28;;;16.00;99.90;;;;;;12382051;28;20495;-36
2021/06/06 10:42:09;;;;;;;53.25;34.92;;;16.10;99.90;;;;;;12383419;28;20050;-35
2021/06/06 10:48:28;;;;;;;57.00;37.35;;;16.00;99.90;;;;;;12379799;28;20058;-36
2021/06/06 10:54:30;;;;;;;57.55;37.08;;;16.00;99.90;;;;;;12382760;28;20065;-37
2021/06/06 11:00:40;;;;;;;56.70;35.90;;;16.00;99.90;;;;;;12390531;28;20376;-36
2021/06/06 11:06:46;;;;;;;65.45;42.17;;;16.00;99.90;;;;;;12383544;28;20057;-36
2021/06/06 11:12:51;;;;;;;66.97;42.92;;;16.20;99.90;;;;;;12390094;28;20057;-36
2021/06/06 11:18:57;;;;;;;66.38;42.22;;;16.10;99.90;;;;;;12387229;28;20104;-36
2021/06/06 11:25:00;;;;;;;64.78;43.03;;;16.00;99.90;;;;;;12390053;28;20050;-37
2021/06/06 11:31:05;;;;;;;62.53;41.53;;;16.20;99.90;;;;;;12385670;28;20411;-37
2021/06/06 11:37:12;;;;;;;60.63;42.08;;;16.30;99.90;;;;;;12386722;28;20057;-36
2021/06/06 11:43:40;;;;;;;49.35;37.28;;;16.60;99.90;;;;;;12390147;28;20058;-35
2021/06/06 11:50:14;;;;;;;47.63;36.35;;;16.60;99.90;;;;;;12388643;28;20046;-35
2021/06/06 11:56:24;;;;;;;44.80;32.60;;;17.00;99.90;;;;;;12441127;28;20468;-35
2021/06/06 12:02:32;;;;;;;41.88;31.05;;;17.10;99.90;;;;;;12438239;28;20053;-36
2021/06/06 12:08:45;;;;;;;39.30;28.85;;;17.20;99.90;;;;;;12441741;28;20131;-36
2021/06/06 12:15:19;;;;;;;38.85;30.80;;;17.30;99.90;;;;;;12397568;28;20042;-35
2021/06/06 12:21:23;;;;;;;38.03;29.13;;;17.60;99.90;;;;;;12384545;28;20051;-36
2021/06/06 12:27:26;;;;;;;39.17;30.23;;;17.60;99.90;;;;;;12379488;28;20054;-36
2021/06/06 12:33:42;;;;;;;36.13;26.70;;;17.80;99.90;;;;;;12384440;28;20491;-36
2021/06/06 12:39:45;;;;;;;29.75;24.92;;;17.70;99.90;;;;;;12384351;28;20054;-36
2021/06/06 12:45:47;;;;;;;35.65;27.70;;;18.00;99.90;;;;;;12383372;28;20502;-36
2021/06/06 12:51:50;;;;;;;28.42;23.13;;;18.00;99.90;;;;;;12370992;28;20078;-36
2021/06/06 12:58:15;;;;;;;30.23;25.55;;;17.90;99.90;;;;;;12382899;28;20050;-37
2021/06/06 13:04:22;;;;;;;25.40;21.50;;;17.60;99.90;;;;;;12387146;28;20145;-36
2021/06/06 13:10:28;;;;;;;23.38;20.55;;;17.60;99.90;;;;;;12384527;28;20131;-36
2021/06/06 13:16:34;;;;;;;27.55;21.17;;;17.30;99.90;;;;;;12380763;28;20061;-36
2021/06/06 13:22:37;;;;;;;29.23;23.60;;;17.40;99.90;;;;;;12381627;28;20050;-40
2021/06/06 13:28:57;;;;;;;25.88;22.20;;;17.50;99.90;;;;;;12381783;28;20050;-36
2021/06/06 13:35:03;;;;;;;28.42;20.15;;;17.60;99.90;;;;;;12385380;28;20050;-36
2021/06/06 13:41:07;;;;;;;22.85;19.23;;;17.70;99.90;;;;;;12381044;28;20052;-37
2021/06/06 13:47:10;;;;;;;24.33;18.48;;;17.70;99.90;;;;;;12380232;28;20050;-35
2021/06/06 13:53:25;;;;;;;24.45;17.35;;;17.70;99.90;;;;;;12380393;28;20524;-36
2021/06/06 13:59:28;;;;;;;21.33;15.82;;;17.60;99.90;;;;;;12378733;28;20054;-35
2021/06/06 14:05:30;;;;;;;16.67;13.88;;;17.30;99.90;;;;;;12385799;28;20050;-36
2021/06/06 14:11:35;;;;;;;17.20;14.77;;;17.00;99.90;;;;;;12386485;28;20054;-36
2021/06/06 14:17:37;;;;;;;17.55;14.85;;;16.90;99.90;;;;;;12381306;28;20105;-36
2021/06/06 14:23:40;;;;;;;20.75;14.60;;;16.90;99.90;;;;;;12380280;28;20544;-36
2021/06/06 14:29:52;;;;;;;19.23;15.48;;;16.90;99.90;;;;;;12385917;28;20177;-36
2021/06/06 14:36:00;;;;;;;19.60;15.23;;;16.80;99.90;;;;;;12387968;28;20658;-38
2021/06/06 14:42:03;;;;;;;18.42;15.38;;;16.90;99.90;;;;;;12390680;28;20057;-36
2021/06/06 14:48:07;;;;;;;18.30;15.52;;;16.90;99.90;;;;;;12385580;28;20092;-36
2021/06/06 14:54:12;;;;;;;18.95;16.30;;;16.90;99.90;;;;;;12393475;28;20061;-36
2021/06/06 15:00:20;;;;;;;18.75;15.48;;;16.90;99.90;;;;;;12388552;28;20054;-36
2021/06/06 15:06:25;;;;;;;17.40;13.88;;;16.90;99.90;;;;;;12394063;28;20513;-36
2021/06/06 15:12:27;;;;;;;20.55;15.80;;;16.90;99.90;;;;;;12389256;28;21018;-35
2021/06/06 15:18:29;;;;;;;21.55;14.27;;;16.80;99.90;;;;;;12395283;28;20105;-35
2021/06/06 15:24:31;;;;;;;16.92;13.95;;;16.70;99.90;;;;;;12388933;28;20157;-36
2021/06/06 15:30:35;;;;;;;16.33;14.05;;;16.70;99.90;;;;;;12392223;28;20054;-36
2021/06/06 15:36:38;;;;;;;19.20;14.18;;;16.80;99.90;;;;;;12381138;28;20054;-36
2021/06/06 15:42:40;;;;;;;20.55;15.00;;;16.70;99.90;;;;;;12386896;28;20628;-36
2021/06/06 15:48:44;;;;;;;20.65;15.60;;;16.70;99.90;;;;;;12377664;28;20054;-36
2021/06/06 15:54:46;;;;;;;21.48;16.77;;;16.70;99.90;;;;;;12384723;28;20046;-35
2021/06/06 16:00:48;;;;;;;21.52;15.95;;;16.60;99.90;;;;;;12390766;28;20054;-36
2021/06/06 16:06:51;;;;;;;20.13;17.30;;;16.60;99.90;;;;;;12388308;28;20053;-36
2021/06/06 16:12:56;;;;;;;21.10;16.98;;;16.60;99.90;;;;;;12382904;28;20618;-39
2021/06/06 16:18:58;;;;;;;24.05;17.35;;;16.50;99.90;;;;;;12377842;28;20085;-36
2021/06/06 16:25:00;;;;;;;25.25;19.42;;;16.60;99.90;;;;;;12380497;28;20054;-35
2021/06/06 16:31:02;;;;;;;24.58;18.52;;;16.40;99.90;;;;;;12382448;28;20050;-36
2021/06/06 16:37:04;;;;;;;25.00;18.55;;;16.40;99.90;;;;;;12387371;28;20574;-37
2021/06/06 16:43:07;;;;;;;24.73;18.48;;;16.50;99.90;;;;;;12377465;28;20048;-35
2021/06/06 16:49:09;;;;;;;23.48;17.55;;;16.40;99.90;;;;;;12383633;28;20050;-36
2021/06/06 16:55:15;;;;;;;24.15;18.77;;;16.40;99.90;;;;;;12389754;28;20247;-37
2021/06/06 17:01:21;;;;;;;26.95;19.35;;;16.30;99.90;;;;;;12382208;28;20069;-36
2021/06/06 17:07:23;;;;;;;25.00;19.13;;;16.50;99.90;;;;;;12382096;28;20046;-36
2021/06/06 17:13:28;;;;;;;22.60;17.48;;;16.40;99.90;;;;;;12381452;28;20046;-37
2021/06/06 17:19:30;;;;;;;26.30;20.05;;;16.40;99.90;;;;;;12388124;28;20111;-36
2021/06/06 17:25:34;;;;;;;26.83;20.02;;;16.30;99.90;;;;;;12381930;28;20096;-36
2021/06/06 17:31:36;;;;;;;28.20;21.30;;;16.30;99.90;;;;;;12385797;28;20042;-39
2021/06/06 17:37:38;;;;;;;27.90;19.90;;;16.30;99.90;;;;;;12380096;28;20391;-35
2021/06/06 17:43:40;;;;;;;29.10;18.92;;;16.30;99.90;;;;;;12381958;28;20130;-35
2021/06/06 17:49:42;;;;;;;26.35;18.27;;;16.40;99.90;;;;;;12373545;28;20749;-36
2021/06/06 17:55:47;;;;;;;26.55;18.60;;;16.40;99.90;;;;;;12380852;28;20049;-36
2021/06/06 18:01:50;;;;;;;27.23;19.75;;;16.30;99.90;;;;;;12384957;28;20111;-37
2021/06/06 18:07:53;;;;;;;24.20;18.58;;;16.30;99.90;;;;;;12389674;28;20498;-36
2021/06/06 18:13:57;;;;;;;24.35;19.38;;;16.20;99.90;;;;;;12388447;28;20053;-39
2021/06/06 18:19:59;;;;;;;22.13;18.00;;;16.20;99.90;;;;;;12385757;28;20054;-37
2021/06/06 18:26:02;;;;;;;26.23;18.48;;;16.20;99.90;;;;;;12441051;28;20049;-36
2021/06/06 18:32:04;;;;;;;25.30;19.48;;;16.20;99.90;;;;;;12421457;28;20115;-36
2021/06/06 18:38:06;;;;;;;26.88;21.27;;;16.20;99.90;;;;;;12388574;28;20085;-36
2021/06/06 18:44:10;;;;;;;29.35;21.33;;;16.10;99.90;;;;;;12382834;28;20068;-36
2021/06/06 18:50:14;;;;;;;26.40;22.03;;;16.10;99.90;;;;;;12385068;28;20445;-36
2021/06/06 18:56:19;;;;;;;23.67;18.58;;;16.10;99.90;;;;;;12378181;28;20099;-36
2021/06/06 19:02:21;;;;;;;24.92;18.80;;;16.00;99.90;;;;;;12377356;28;20054;-36
2021/06/06 19:08:23;;;;;;;26.45;19.95;;;16.00;99.90;;;;;;12382047;28;20050;-37
2021/06/06 19:14:27;;;;;;;33.88;22.95;;;16.00;99.90;;;;;;12384719;28;20145;-38
2021/06/06 19:20:29;;;;;;;28.30;21.27;;;16.00;99.90;;;;;;12382059;28;20054;-36
2021/06/06 19:26:32;;;;;;;28.27;21.75;;;16.00;99.90;;;;;;12381500;28;20053;-36
2021/06/06 19:32:34;;;;;;;28.60;22.15;;;16.00;99.90;;;;;;12369372;28;20936;-36
2021/06/06 19:38:37;;;;;;;24.60;18.63;;;15.90;99.90;;;;;;12383063;28;20096;-38
2021/06/06 19:44:39;;;;;;;24.60;18.52;;;16.00;99.90;;;;;;12385316;28;20054;-36
2021/06/06 19:50:43;;;;;;;26.92;21.17;;;16.10;99.90;;;;;;12388407;28;20054;-36
2021/06/06 19:56:45;;;;;;;26.70;20.50;;;16.10;99.90;;;;;;12379531;28;20062;-35
2021/06/06 20:02:47;;;;;;;32.72;22.58;;;16.00;99.90;;;;;;12382331;28;20046;-36
2021/06/06 20:08:50;;;;;;;27.52;21.48;;;15.90;99.90;;;;;;12377783;28;20053;-37
2021/06/06 20:14:52;;;;;;;28.17;21.75;;;16.00;99.90;;;;;;12383151;28;20210;-37
2021/06/06 20:20:55;;;;;;;30.63;23.27;;;15.90;99.90;;;;;;12388110;28;20100;-36
2021/06/06 20:26:58;;;;;;;30.10;23.83;;;15.90;99.90;;;;;;12382824;28;20054;-37
2021/06/06 20:33:02;;;;;;;26.65;21.92;;;15.90;99.90;;;;;;12382799;28;20116;-38
2021/06/06 20:39:08;;;;;;;26.70;22.60;;;15.90;99.90;;;;;;12383209;28;20868;-36
2021/06/06 20:45:17;;;;;;;28.52;23.77;;;15.90;99.90;;;;;;12380125;28;20046;-38
2021/06/06 20:51:20;;;;;;;25.60;21.13;;;15.80;99.90;;;;;;12382083;28;20085;-37
2021/06/06 20:57:24;;;;;;;30.40;23.13;;;15.90;99.90;;;;;;12381084;28;20081;-36
2021/06/06 21:03:26;;;;;;;;;;;15.90;99.90;;;;;;12382716;28;20584;-38
2021/06/06 21:09:31;;;;;;;30.15;22.83;;;15.80;99.90;;;;;;12376892;28;20023;-36
2021/06/06 21:15:34;;;;;;;31.20;22.08;;;15.80;99.90;;;;;;12384698;28;20282;-37
2021/06/06 21:21:36;;;;;;;29.63;23.33;;;15.80;99.90;;;;;;12380247;28;20063;-36
2021/06/06 21:27:38;;;;;;;32.85;24.27;;;15.80;99.90;;;;;;12384922;28;20050;-36
2021/06/06 21:33:41;;;;;;;31.85;24.05;;;15.90;99.90;;;;;;12383410;28;20057;-37
2021/06/06 21:39:43;;;;;;;29.80;23.63;;;15.80;99.90;;;;;;12382510;28;20693;-36
2021/06/06 21:45:45;;;;;;;31.98;23.73;;;15.80;99.90;;;;;;12387102;28;20041;-37
2021/06/06 21:51:47;;;;;;;31.70;24.45;;;15.80;99.90;;;;;;12381370;28;20056;-39
2021/06/06 21:57:51;;;;;;;26.40;22.85;;;15.80;99.90;;;;;;12379682;28;20723;-40
2021/06/06 22:03:54;;;;;;;29.23;23.52;;;15.70;99.90;;;;;;12381387;28;20042;-36
2021/06/06 22:09:56;;;;;;;32.87;25.57;;;15.80;99.90;;;;;;12381774;28;20141;-36
2021/06/06 22:15:59;;;;;;;29.30;24.15;;;15.70;99.90;;;;;;12379576;28;20099;-36
2021/06/06 22:22:39;;;;;;;28.30;23.73;;;15.70;99.90;;;;;;12378208;28;20073;-35
2021/06/06 22:29:18;;;;;;;31.80;23.60;;;15.60;99.90;;;;;;12388611;28;20053;-39
2021/06/06 22:35:57;;;;;;;26.60;22.33;;;15.60;99.90;;;;;;12385366;28;20107;-36
2021/06/06 22:42:37;;;;;;;34.78;25.20;;;15.50;99.90;;;;;;12381777;28;20453;-35
2021/06/06 22:49:16;;;;;;;30.98;24.67;;;15.50;99.90;;;;;;12391937;28;20050;-36
2021/06/06 22:55:56;;;;;;;31.77;24.60;;;15.60;99.90;;;;;;12384856;28;20054;-36
2021/06/06 23:02:35;;;;;;;28.23;23.60;;;15.60;99.90;;;;;;12379496;28;20127;-38
2021/06/06 23:09:14;;;;;;;29.80;24.35;;;15.60;99.90;;;;;;12386991;28;20084;-36
2021/06/06 23:15:16;;;;;;;28.65;23.52;;;15.60;99.90;;;;;;12386695;28;20046;-35
2021/06/06 23:21:18;;;;;;;27.70;22.55;;;15.50;99.90;;;;;;12385695;28;20042;-36
2021/06/06 23:27:23;;;;;;;30.90;23.23;;;15.50;99.90;;;;;;12383761;28;20597;-39
2021/06/06 23:33:25;;;;;;;29.17;24.20;;;15.40;99.90;;;;;;12389996;28;20062;-36
2021/06/06 23:39:28;;;;;;;27.17;22.77;;;15.40;99.90;;;;;;12390394;28;20128;-36
2021/06/06 23:45:31;;;;;;;28.33;22.52;;;15.30;99.90;;;;;;12385540;28;20129;-36
2021/06/06 23:51:38;;;;;;;30.40;23.92;;;15.40;99.90;;;;;;12380937;28;20046;-38
2021/06/06 23:57:40;;;;;;;29.95;24.23;;;15.40;99.90;;;;;;12384669;28;20058;-35
